Time;durP1;ratioP1;P1;durP2;ratioP2;P2;SDS_P1;SDS_P2;PMS_P1;PMS_P2;Temp;Humidity;BMP_temperature;BMP_pressure;BME280_temperature;BME280_humidity;BME280_pressure;Samples;Min_cycle;Max_cycle;Signal;HPM_P1;HPM_P2
2023/02/24 00:01:36;;;;;;;8.85;6.85;;;;;;;-142.37;100.00;59669.53;5092335;28;20035;-56
2023/02/24 00:04:07;;;;;;;8.15;6.20;;;;;;;-142.37;100.00;59669.53;5091397;28;20477;-58
2023/02/24 00:06:37;;;;;;;10.48;6.43;;;;;;;-142.37;100.00;59669.53;5091142;28;20036;-57
2023/02/24 00:09:08;;;;;;;10.88;5.88;;;;;;;-142.37;100.00;59669.53;5091188;28;20024;-56
2023/02/24 00:11:36;;;;;;;9.63;6.93;;;;;;;-142.37;100.00;59669.53;5092597;28;20032;-57
2023/02/24 00:14:09;;;;;;;8.80;6.57;;;;;;;-142.37;100.00;59669.53;5092659;28;20028;-57
2023/02/24 00:16:36;;;;;;;8.90;6.35;;;;;;;-142.37;100.00;59669.53;5092752;28;20052;-56
2023/02/24 00:19:06;;;;;;;9.75;6.63;;;;;;;-142.37;100.00;59669.53;5090733;28;20028;-56
2023/02/24 00:21:33;;;;;;;9.10;6.38;;;;;;;-142.37;100.00;59669.53;5092687;28;20109;-58
2023/02/24 00:23:59;;;;;;;7.63;5.82;;;;;;;-142.37;100.00;59669.53;5092879;28;20103;-56
2023/02/24 00:26:28;;;;;;;8.70;5.63;;;;;;;-142.37;100.00;59669.53;5092564;28;20032;-57
2023/02/24 00:28:59;;;;;;;6.88;4.78;;;;;;;-142.37;100.00;59669.53;5092888;28;20028;-56
2023/02/24 00:31:29;;;;;;;6.72;5.20;;;;;;;-142.37;100.00;59669.53;5092108;28;20016;-55
2023/02/24 00:33:57;;;;;;;6.85;3.60;;;;;;;-142.37;100.00;59669.53;5091192;28;20020;-56
2023/02/24 00:36:24;;;;;;;5.75;4.18;;;;;;;-142.37;100.00;59669.53;5092472;28;20028;-56
2023/02/24 00:38:59;;;;;;;5.93;4.00;;;;;;;-142.37;100.00;59669.53;5091355;28;20028;-58
2023/02/24 00:41:30;;;;;;;5.78;4.60;;;;;;;-142.37;100.00;59669.53;5091471;28;20031;-55
2023/02/24 00:44:06;;;;;;;7.93;5.53;;;;;;;-142.37;100.00;59669.53;5091177;28;20040;-57
2023/02/24 00:46:38;;;;;;;6.35;4.88;;;;;;;-142.37;100.00;59669.53;5091119;28;20024;-57
2023/02/24 00:49:09;;;;;;;6.70;4.88;;;;;;;-142.37;100.00;59669.53;5092399;28;20473;-56
2023/02/24 00:51:40;;;;;;;4.63;4.13;;;;;;;-142.37;100.00;59669.53;5090895;28;20026;-57
2023/02/24 00:54:07;;;;;;;5.80;4.40;;;;;;;-142.37;100.00;59669.53;5092340;28;20032;-56
2023/02/24 00:56:33;;;;;;;5.78;4.55;;;;;;;-142.37;100.00;59669.53;5090893;28;20105;-56
2023/02/24 00:59:00;;;;;;;6.60;5.43;;;;;;;-142.37;100.00;59669.53;5092237;28;20024;-56
2023/02/24 01:01:31;;;;;;;7.03;5.32;;;;;;;-142.37;100.00;59669.53;5091094;28;20384;-58
2023/02/24 01:04:00;;;;;;;8.80;6.22;;;;;;;-142.37;100.00;59669.53;5091960;28;20032;-56
2023/02/24 01:06:28;;;;;;;9.07;6.65;;;;;;;-142.37;100.00;59669.53;5090695;28;20366;-56
2023/02/24 01:08:56;;;;;;;8.65;6.43;;;;;;;-142.37;100.00;59669.53;5091784;28;20020;-55
2023/02/24 01:14:12;;;;;;;6.25;5.55;;;;;;;-142.37;100.00;59669.53;5096454;28;20115;-56
2023/02/24 01:16:40;;;;;;;6.18;5.30;;;;;;;-142.37;100.00;59669.53;5096043;28;20044;-58
2023/02/24 01:19:06;;;;;;;8.73;6.28;;;;;;;-142.37;100.00;59669.53;5094490;28;20020;-56
2023/02/24 01:21:33;;;;;;;7.53;5.32;;;;;;;-142.37;100.00;59669.53;5095669;28;20024;-55
2023/02/24 01:23:59;;;;;;;6.28;5.00;;;;;;;-142.37;100.00;59669.53;5096062;28;20508;-54
2023/02/24 01:26:25;;;;;;;10.18;6.35;;;;;;;-142.37;100.00;59669.53;5095938;28;20077;-57
2023/02/24 01:28:54;;;;;;;8.30;4.93;;;;;;;-142.37;100.00;59669.53;5094420;28;20426;-53
2023/02/24 01:31:22;;;;;;;7.40;5.55;;;;;;;-142.37;100.00;59669.53;5095633;28;20024;-56
2023/02/24 01:33:49;;;;;;;8.10;5.85;;;;;;;-142.37;100.00;59669.53;5095414;28;20028;-55
2023/02/24 01:36:22;;;;;;;10.65;5.30;;;;;;;-142.37;100.00;59669.53;5095875;28;20499;-55
2023/02/24 01:38:48;;;;;;;7.00;5.10;;;;;;;-142.37;100.00;59669.53;5095497;28;20103;-56
2023/02/24 01:41:20;;;;;;;8.57;5.50;;;;;;;-142.37;100.00;59669.53;5094054;28;20433;-56
2023/02/24 01:43:57;;;;;;;6.55;4.78;;;;;;;-142.37;100.00;59669.53;5094050;28;20024;-56
2023/02/24 01:46:25;;;;;;;5.85;4.60;;;;;;;-142.37;100.00;59669.53;5095207;28;20122;-56
2023/02/24 01:48:54;;;;;;;7.63;5.60;;;;;;;-142.37;100.00;59669.53;5095477;28;20115;-57
2023/02/24 01:51:21;;;;;;;8.38;5.78;;;;;;;-142.37;100.00;59669.53;5095186;28;20024;-56
2023/02/24 01:53:48;;;;;;;6.60;5.32;;;;;;;-142.37;100.00;59669.53;5095192;28;20472;-56
2023/02/24 01:56:15;;;;;;;5.28;3.80;;;;;;;-142.37;100.00;59669.53;5093741;28;20503;-57
2023/02/24 01:58:41;;;;;;;5.30;3.28;;;;;;;-142.37;100.00;59669.53;5095026;28;20504;-57
2023/02/24 02:01:09;;;;;;;6.22;4.13;;;;;;;-142.37;100.00;59669.53;5094588;28;20472;-56
2023/02/24 02:03:40;;;;;;;4.53;3.13;;;;;;;-142.37;100.00;59669.53;5095606;28;20047;-58
2023/02/24 02:06:11;;;;;;;4.97;3.35;;;;;;;-142.37;100.00;59669.53;5095059;28;20024;-57
2023/02/24 02:08:39;;;;;;;5.20;4.15;;;;;;;-142.37;100.00;59669.53;5093509;28;20020;-56
2023/02/24 02:11:13;;;;;;;4.72;3.65;;;;;;;-142.37;100.00;59669.53;5095205;28;20024;-57
2023/02/24 02:13:44;;;;;;;8.15;5.07;;;;;;;-142.37;100.00;59669.53;5094877;28;20020;-57
2023/02/24 02:16:34;;;;;;;7.85;5.07;;;;;;;-142.37;100.00;59669.53;5093240;28;20072;-58
2023/02/24 02:19:23;;;;;;;10.05;5.55;;;;;;;-142.37;100.00;59669.53;5078721;28;20093;-59
2023/02/24 02:22:16;;;;;;;8.23;5.32;;;;;;;-142.37;100.00;59669.53;5093004;28;20400;-57
2023/02/24 02:24:53;;;;;;;6.50;5.18;;;;;;;-142.37;100.00;59669.53;5094654;28;20024;-57
2023/02/24 02:27:58;;;;;;;7.57;4.97;;;;;;;-142.37;100.00;59669.53;5094673;28;20145;-57
2023/02/24 02:30:44;;;;;;;9.50;6.00;;;;;;;-142.37;100.00;59669.53;5092177;28;20032;-55
2023/02/24 02:33:38;;;;;;;8.60;5.80;;;;;;;-142.37;100.00;59669.53;5092786;28;20112;-56
2023/02/24 02:36:30;;;;;;;10.18;5.40;;;;;;;-142.37;100.00;59669.53;5092701;28;20056;-57
2023/02/24 02:39:30;;;;;;;8.77;5.95;;;;;;;-142.37;100.00;59669.53;5093102;28;20032;-55
2023/02/24 02:42:28;;;;;;;7.13;5.28;;;;;;;-142.37;100.00;59669.53;5094375;28;20031;-56
2023/02/24 02:45:00;;;;;;;9.20;6.55;;;;;;;-142.37;100.00;59669.53;5092898;28;20519;-55
2023/02/24 02:47:49;;;;;;;8.27;6.10;;;;;;;-142.37;100.00;59669.53;5092947;28;20027;-56
2023/02/24 02:50:22;;;;;;;5.53;4.30;;;;;;;-142.37;100.00;59669.53;5094438;28;20051;-58
2023/02/24 02:52:57;;;;;;;5.68;4.38;;;;;;;-142.37;100.00;59669.53;5094069;28;20055;-57
2023/02/24 02:55:37;;;;;;;5.18;3.58;;;;;;;-142.37;100.00;59669.53;5092664;28;20473;-56
2023/02/24 02:58:10;;;;;;;9.07;5.10;;;;;;;-142.37;100.00;59669.53;5092913;28;20035;-57
2023/02/24 03:00:48;;;;;;;6.15;4.47;;;;;;;-142.37;100.00;59669.53;5094159;28;20028;-57
2023/02/24 03:03:16;;;;;;;7.20;3.92;;;;;;;-142.37;100.00;59669.53;5093658;28;20034;-58
2023/02/24 03:05:58;;;;;;;4.05;3.60;;;;;;;-142.37;100.00;59669.53;5093825;28;20031;-57
2023/02/24 03:08:28;;;;;;;6.72;4.43;;;;;;;-142.37;100.00;59669.53;5093971;28;20031;-57
2023/02/24 03:10:59;;;;;;;6.00;4.47;;;;;;;-142.37;100.00;59669.53;5094411;28;20391;-57
2023/02/24 03:13:31;;;;;;;5.95;4.60;;;;;;;-142.37;100.00;59669.53;5094280;28;20028;-57
2023/02/24 03:16:00;;;;;;;6.30;4.53;;;;;;;-142.37;100.00;59669.53;5093318;28;20024;-56
2023/02/24 03:18:31;;;;;;;9.00;6.00;;;;;;;-142.37;100.00;59669.53;5092571;28;20502;-58
2023/02/24 03:21:07;;;;;;;7.38;5.82;;;;;;;-142.37;100.00;59669.53;5093921;28;20044;-57
2023/02/24 03:23:44;;;;;;;6.50;4.97;;;;;;;-142.37;100.00;59669.53;5094296;28;20078;-57
2023/02/24 03:26:17;;;;;;;6.43;4.85;;;;;;;-142.37;100.00;59669.53;5094230;28;20381;-57
2023/02/24 03:28:50;;;;;;;6.38;5.05;;;;;;;-142.37;100.00;59669.53;5094213;28;20024;-57
2023/02/24 03:31:26;;;;;;;7.88;4.97;;;;;;;-142.37;100.00;59669.53;5093778;28;20031;-58
2023/02/24 03:34:27;;;;;;;5.65;3.67;;;;;;;-142.37;100.00;59669.53;5091813;28;20058;-58
2023/02/24 03:36:54;;;;;;;5.22;3.70;;;;;;;-142.37;100.00;59669.53;5093875;28;20111;-57
2023/02/24 03:39:21;;;;;;;5.95;3.88;;;;;;;-142.37;100.00;59669.53;5093775;28;20020;-57
2023/02/24 03:41:54;;;;;;;5.53;4.20;;;;;;;-142.37;100.00;59669.53;5093707;28;20062;-58
2023/02/24 03:44:21;;;;;;;9.43;6.32;;;;;;;-142.37;100.00;59669.53;5092146;28;20438;-56
2023/02/24 03:46:47;;;;;;;7.82;6.13;;;;;;;-142.37;100.00;59669.53;5091955;28;20488;-57
2023/02/24 03:49:15;;;;;;;8.82;6.25;;;;;;;-142.37;100.00;59669.53;5093235;28;20111;-57
2023/02/24 03:51:55;;;;;;;9.20;5.78;;;;;;;-142.37;100.00;59669.53;5093437;28;20089;-57
2023/02/24 03:55:05;;;;;;;11.07;8.05;;;;;;;-142.37;100.00;59669.53;5093284;28;20442;-56
2023/02/24 03:57:54;;;;;;;14.90;9.10;;;;;;;-142.37;100.00;59669.53;5071641;28;20058;-56
2023/02/24 04:00:45;;;;;;;10.35;6.82;;;;;;;-142.37;100.00;59669.53;5093377;28;20025;-57
2023/02/24 04:03:36;;;;;;;11.45;7.75;;;;;;;-142.37;100.00;59669.53;5082066;28;20036;-58
2023/02/24 04:06:23;;;;;;;12.13;7.90;;;;;;;-142.37;100.00;59669.53;5092901;28;20097;-58
2023/02/24 04:09:12;;;;;;;10.85;7.55;;;;;;;-142.37;100.00;59669.53;5092727;28;20201;-56
2023/02/24 04:11:50;;;;;;;12.55;8.00;;;;;;;-142.37;100.00;59669.53;5093187;28;20031;-57
2023/02/24 04:14:29;;;;;;;11.30;7.30;;;;;;;-142.37;100.00;59669.53;5093276;28;20477;-57
2023/02/24 04:17:12;;;;;;;10.77;6.18;;;;;;;-142.37;100.00;59669.53;5091374;28;20142;-60
2023/02/24 04:19:41;;;;;;;13.27;7.43;;;;;;;-142.37;100.00;59669.53;5093165;28;20023;-57
2023/02/24 04:22:11;;;;;;;11.13;6.68;;;;;;;-142.37;100.00;59669.53;5091645;28;20031;-57
2023/02/24 04:24:40;;;;;;;13.65;9.90;;;;;;;-142.37;100.00;59669.53;5092601;28;20024;-57
2023/02/24 04:27:10;;;;;;;14.60;10.35;;;;;;;-142.37;100.00;59669.53;5092772;28;20024;-58
2023/02/24 04:29:40;;;;;;;14.75;9.95;;;;;;;-142.37;100.00;59669.53;5091805;28;20076;-57
2023/02/24 04:32:08;;;;;;;13.50;9.07;;;;;;;-142.37;100.00;59669.53;5092896;28;20445;-57
2023/02/24 04:34:34;;;;;;;12.23;8.05;;;;;;;-142.37;100.00;59669.53;5090874;28;20412;-56
2023/02/24 04:37:01;;;;;;;7.68;5.80;;;;;;;-142.37;100.00;59669.53;5090676;28;20024;-58
2023/02/24 04:39:28;;;;;;;8.45;6.45;;;;;;;-142.37;100.00;59669.53;5092492;28;20020;-57
2023/02/24 04:41:56;;;;;;;7.80;5.78;;;;;;;-142.37;100.00;59669.53;5091154;28;20027;-57
2023/02/24 04:44:24;;;;;;;6.82;5.15;;;;;;;-142.37;100.00;59669.53;5092562;28;20027;-58
2023/02/24 04:46:50;;;;;;;7.85;5.15;;;;;;;-142.37;100.00;59669.53;5095084;28;20028;-57
2023/02/24 04:49:18;;;;;;;5.78;4.45;;;;;;;-142.37;100.00;59669.53;5095051;28;20039;-60
2023/02/24 04:51:45;;;;;;;5.88;4.63;;;;;;;-142.37;100.00;59669.53;5096136;28;20077;-57
2023/02/24 04:54:16;;;;;;;9.90;6.22;;;;;;;-142.37;100.00;59669.53;5094887;28;20036;-57
2023/02/24 04:56:47;;;;;;;9.30;6.28;;;;;;;-142.37;100.00;59669.53;5096451;28;20060;-57
2023/02/24 04:59:14;;;;;;;8.13;6.07;;;;;;;-142.37;100.00;59669.53;5094806;28;20024;-56
2023/02/24 05:01:42;;;;;;;6.40;4.40;;;;;;;-142.37;100.00;59669.53;5096053;28;20031;-57
2023/02/24 05:04:09;;;;;;;6.95;4.80;;;;;;;-142.37;100.00;59669.53;5096477;28;20040;-58
2023/02/24 05:06:34;;;;;;;7.00;5.18;;;;;;;-142.37;100.00;59669.53;5096423;28;20044;-56
2023/02/24 05:09:09;;;;;;;7.65;5.72;;;;;;;-142.37;100.00;59669.53;5096373;28;20039;-59
2023/02/24 05:11:35;;;;;;;7.47;5.78;;;;;;;-142.37;100.00;59669.53;5094643;28;20105;-59
2023/02/24 05:14:03;;;;;;;9.30;6.10;;;;;;;-142.37;100.00;59669.53;5095034;28;20485;-58
2023/02/24 05:16:29;;;;;;;8.93;5.93;;;;;;;-142.37;100.00;59669.53;5094385;28;20048;-58
2023/02/24 05:21:40;;;;;;;8.25;6.07;;;;;;;-142.37;100.00;59669.53;5096098;28;20464;-57
2023/02/24 05:24:07;;;;;;;8.20;5.55;;;;;;;-142.37;100.00;59669.53;5094734;28;20056;-57
2023/02/24 05:26:40;;;;;;;7.68;5.45;;;;;;;-142.37;100.00;59669.53;5095854;28;20035;-59
2023/02/24 05:29:07;;;;;;;7.97;5.43;;;;;;;-142.37;100.00;59669.53;5095847;28;20028;-61
2023/02/24 05:31:32;;;;;;;9.68;5.40;;;;;;;-142.37;100.00;59669.53;5095941;28;20380;-57
2023/02/24 05:34:01;;;;;;;7.80;5.85;;;;;;;-142.37;100.00;59669.53;5095927;28;20032;-58
2023/02/24 05:36:44;;;;;;;8.02;5.80;;;;;;;-142.37;100.00;59669.53;5095978;28;20063;-57
2023/02/24 05:39:11;;;;;;;6.88;5.38;;;;;;;-142.37;100.00;59669.53;5095104;28;20032;-58
2023/02/24 05:41:40;;;;;;;6.90;4.85;;;;;;;-142.37;100.00;59669.53;5093754;28;20114;-58
2023/02/24 05:44:11;;;;;;;9.05;6.03;;;;;;;-142.37;100.00;59669.53;5095355;28;20036;-57
2023/02/24 05:46:40;;;;;;;8.65;6.20;;;;;;;-142.37;100.00;59669.53;5095549;28;20028;-58
2023/02/24 05:49:26;;;;;;;8.15;5.45;;;;;;;-142.37;100.00;59669.53;5095059;28;20024;-56
2023/02/24 05:51:55;;;;;;;;;;;;;;;-142.37;100.00;59669.53;5094338;28;20498;-60
2023/02/24 05:54:31;;;;;;;9.00;6.85;;;;;;;-142.37;100.00;59669.53;5093394;28;19915;-59
2023/02/24 05:57:06;;;;;;;8.68;5.75;;;;;;;-142.37;100.00;59669.53;5094763;28;20024;-60
2023/02/24 05:59:32;;;;;;;7.82;4.63;;;;;;;-142.37;100.00;59669.53;5093247;28;20042;-57
2023/02/24 06:02:00;;;;;;;6.47;3.45;;;;;;;-142.37;100.00;59669.53;5093877;28;20039;-58
2023/02/24 06:04:38;;;;;;;5.88;4.63;;;;;;;-142.37;100.00;59669.53;5093895;28;20449;-59
2023/02/24 06:07:12;;;;;;;8.05;5.28;;;;;;;-142.37;100.00;59669.53;5093336;28;20028;-57
2023/02/24 06:09:41;;;;;;;5.90;4.22;;;;;;;-142.37;100.00;59669.53;5094621;28;20016;-58
2023/02/24 06:12:08;;;;;;;6.10;4.22;;;;;;;-142.37;100.00;59669.53;5094498;28;20039;-57
2023/02/24 06:14:34;;;;;;;5.78;4.50;;;;;;;-142.37;100.00;59669.53;5094415;28;20024;-58
2023/02/24 06:17:03;;;;;;;5.78;3.90;;;;;;;-142.37;100.00;59669.53;5092826;28;20055;-59
2023/02/24 06:19:32;;;;;;;6.53;4.70;;;;;;;-142.37;100.00;59669.53;5094047;28;20093;-59
2023/02/24 06:22:02;;;;;;;7.43;5.70;;;;;;;-142.37;100.00;59669.53;5093772;28;20032;-58
2023/02/24 06:24:30;;;;;;;8.50;5.03;;;;;;;-142.37;100.00;59669.53;5092750;28;20032;-59
2023/02/24 06:27:04;;;;;;;6.30;4.90;;;;;;;-142.37;100.00;59669.53;5092785;28;20066;-59
2023/02/24 06:29:30;;;;;;;5.15;3.08;;;;;;;-142.37;100.00;59669.53;5092614;28;20043;-58
2023/02/24 06:31:57;;;;;;;6.28;4.22;;;;;;;-142.37;100.00;59669.53;5094222;28;20036;-59
2023/02/24 06:34:26;;;;;;;5.68;4.40;;;;;;;-142.37;100.00;59669.53;5093908;28;20059;-59
2023/02/24 06:36:53;;;;;;;6.07;4.10;;;;;;;-142.37;100.00;59669.53;5094154;28;20442;-59
2023/02/24 06:39:19;;;;;;;5.63;4.25;;;;;;;-142.37;100.00;59669.53;5093861;28;20052;-58
2023/02/24 06:41:48;;;;;;;7.43;4.15;;;;;;;-142.37;100.00;59669.53;5093823;28;20032;-59
2023/02/24 06:44:14;;;;;;;4.60;3.28;;;;;;;-142.37;100.00;59669.53;5094038;28;20144;-58
2023/02/24 06:46:40;;;;;;;4.20;3.20;;;;;;;-142.37;100.00;59669.53;5092328;28;20032;-59
2023/02/24 06:49:06;;;;;;;3.97;2.88;;;;;;;-142.37;100.00;59669.53;5093219;28;20058;-59
2023/02/24 06:51:32;;;;;;;7.18;2.78;;;;;;;-142.37;100.00;59669.53;5093198;28;20111;-61
2023/02/24 06:53:58;;;;;;;3.67;2.80;;;;;;;-142.37;100.00;59669.53;5093169;28;20441;-58
2023/02/24 06:56:24;;;;;;;3.00;2.25;;;;;;;-142.37;100.00;59669.53;5091818;28;20459;-59
2023/02/24 06:58:54;;;;;;;2.97;2.38;;;;;;;-142.37;100.00;59669.53;5092054;28;20066;-58
2023/02/24 07:01:25;;;;;;;2.85;1.95;;;;;;;-142.37;100.00;59669.53;5093113;28;20023;-59
2023/02/24 07:04:02;;;;;;;2.38;1.60;;;;;;;-142.37;100.00;59669.53;5092800;28;20074;-59
2023/02/24 07:06:30;;;;;;;4.20;2.35;;;;;;;-142.37;100.00;59669.53;5091710;28;20433;-59
2023/02/24 07:08:58;;;;;;;3.42;2.10;;;;;;;-142.37;100.00;59669.53;5091431;28;20114;-60
2023/02/24 07:11:24;;;;;;;3.85;2.00;;;;;;;-142.37;100.00;59669.53;5093026;28;20020;-59
2023/02/24 07:13:53;;;;;;;2.22;1.27;;;;;;;-142.37;100.00;59669.53;5091005;28;20039;-59
2023/02/24 07:16:23;;;;;;;3.08;1.52;;;;;;;-142.37;100.00;59669.53;5091079;28;20511;-59
2023/02/24 07:18:55;;;;;;;3.17;1.80;;;;;;;-142.37;100.00;59669.53;5091404;28;20105;-59
2023/02/24 07:21:22;;;;;;;2.78;1.75;;;;;;;-142.37;100.00;59669.53;5092424;28;20369;-58
2023/02/24 07:23:55;;;;;;;2.55;1.90;;;;;;;-142.37;100.00;59669.53;5091654;28;20357;-59
2023/02/24 07:26:25;;;;;;;3.38;2.05;;;;;;;-142.37;100.00;59669.53;5091119;28;20038;-59
2023/02/24 07:28:53;;;;;;;3.20;1.92;;;;;;;-142.37;100.00;59669.53;5090588;28;20194;-59
2023/02/24 07:31:22;;;;;;;1.80;1.20;;;;;;;-142.37;100.00;59669.53;5092437;28;20027;-59
2023/02/24 07:33:51;;;;;;;2.65;1.40;;;;;;;-142.37;100.00;59669.53;5092221;28;20388;-59
2023/02/24 07:36:21;;;;;;;4.07;2.10;;;;;;;-142.37;100.00;59669.53;5090315;28;20039;-59
2023/02/24 07:38:52;;;;;;;2.25;1.52;;;;;;;-142.37;100.00;59669.53;5091835;28;20024;-59
2023/02/24 07:41:21;;;;;;;2.38;1.70;;;;;;;-142.37;100.00;59669.53;5092339;28;20473;-61
2023/02/24 07:43:51;;;;;;;3.28;2.25;;;;;;;-142.37;100.00;59669.53;5091140;28;20599;-61
2023/02/24 07:46:23;;;;;;;5.00;2.60;;;;;;;-142.37;100.00;59669.53;5090957;28;20051;-59
2023/02/24 07:48:49;;;;;;;5.07;3.10;;;;;;;-142.37;100.00;59669.53;5092666;28;20080;-61
2023/02/24 07:51:18;;;;;;;2.95;2.25;;;;;;;-142.37;100.00;59669.53;5092264;28;20028;-60
2023/02/24 07:53:52;;;;;;;3.17;2.28;;;;;;;-142.37;100.00;59669.53;5091166;28;20119;-61
2023/02/24 07:56:19;;;;;;;3.15;2.35;;;;;;;-142.37;100.00;59669.53;5092150;28;20097;-58
2023/02/24 07:58:52;;;;;;;4.07;2.53;;;;;;;-142.37;100.00;59669.53;5091895;28;20055;-59
2023/02/24 08:01:26;;;;;;;5.18;3.38;;;;;;;-142.37;100.00;59669.53;5093073;28;20093;-59
2023/02/24 08:03:55;;;;;;;4.90;3.20;;;;;;;-142.37;100.00;59669.53;5092180;28;20020;-61
2023/02/24 08:06:26;;;;;;;3.55;2.40;;;;;;;-142.37;100.00;59669.53;5093482;28;20530;-60
2023/02/24 08:08:58;;;;;;;2.75;2.15;;;;;;;-142.37;100.00;59669.53;5091314;28;20075;-60
2023/02/24 08:11:34;;;;;;;5.07;3.10;;;;;;;-142.37;100.00;59669.53;5091089;28;20031;-60
2023/02/24 08:14:12;;;;;;;4.30;2.90;;;;;;;-142.37;100.00;59669.53;5091310;28;20027;-61
2023/02/24 08:16:49;;;;;;;8.00;5.07;;;;;;;-142.37;100.00;59669.53;5091422;28;20052;-59
2023/02/24 08:19:20;;;;;;;7.82;4.07;;;;;;;-142.37;100.00;59669.53;5092422;28;20115;-58
2023/02/24 08:21:51;;;;;;;4.55;3.08;;;;;;;-142.37;100.00;59669.53;5090818;28;20073;-58
2023/02/24 08:24:22;;;;;;;5.63;2.90;;;;;;;-142.37;100.00;59669.53;5090911;28;20028;-60
2023/02/24 08:27:06;;;;;;;6.20;3.97;;;;;;;-142.37;100.00;59669.53;5091433;28;20400;-60
2023/02/24 08:29:56;;;;;;;5.20;3.63;;;;;;;-142.37;100.00;59669.53;5090977;28;20170;-59
2023/02/24 08:32:36;;;;;;;6.20;3.53;;;;;;;-142.37;100.00;59669.53;5090090;28;20035;-59
2023/02/24 08:35:13;;;;;;;4.25;2.92;;;;;;;-142.37;100.00;59669.53;5090425;28;20064;-59
2023/02/24 08:37:47;;;;;;;3.92;2.95;;;;;;;-142.37;100.00;59669.53;5090730;28;20111;-58
2023/02/24 08:42:58;;;;;;;7.70;2.65;;;;;;;-142.37;100.00;59669.53;5091668;28;20032;-59
2023/02/24 08:45:32;;;;;;;3.45;2.45;;;;;;;-142.37;100.00;59669.53;5091620;28;20067;-58
2023/02/24 08:48:17;;;;;;;5.57;3.00;;;;;;;-142.37;100.00;59669.53;5091508;28;20031;-60
2023/02/24 08:50:47;;;;;;;5.53;2.63;;;;;;;-142.37;100.00;59669.53;5091947;28;20095;-59
2023/02/24 08:53:17;;;;;;;13.10;2.45;;;;;;;-142.37;100.00;59669.53;5091843;28;20469;-62
2023/02/24 08:55:50;;;;;;;5.05;2.53;;;;;;;-142.37;100.00;59669.53;5091617;28;20055;-59
2023/02/24 08:58:25;;;;;;;5.20;2.42;;;;;;;-142.37;100.00;59669.53;5090245;28;20028;-60
2023/02/24 09:00:53;;;;;;;;;;;;;;;-142.37;100.00;59669.53;5092073;28;20032;-60
2023/02/24 09:03:27;;;;;;;3.40;2.40;;;;;;;-142.37;100.00;59669.53;5091902;28;19912;-60
2023/02/24 09:05:58;;;;;;;3.55;2.40;;;;;;;-142.37;100.00;59669.53;5092009;28;20039;-60
2023/02/24 09:08:31;;;;;;;6.60;4.07;;;;;;;-142.37;100.00;59669.53;5089908;28;20077;-58
2023/02/24 09:10:59;;;;;;;4.38;2.30;;;;;;;-142.37;100.00;59669.53;5090186;28;20456;-59
2023/02/24 09:13:31;;;;;;;6.05;2.42;;;;;;;-142.37;100.00;59669.53;5091713;28;20114;-59
2023/02/24 09:16:01;;;;;;;3.00;2.35;;;;;;;-142.37;100.00;59669.53;5091566;28;20051;-60
2023/02/24 09:18:29;;;;;;;3.35;2.42;;;;;;;-142.37;100.00;59669.53;5091832;28;20031;-59
2023/02/24 09:22:04;;;;;;;3.10;2.35;;;;;;;-142.37;100.00;59669.53;5090600;28;20044;-60
2023/02/24 09:24:06;;;;;;;3.03;2.22;;;;;;;-142.37;100.00;59669.53;5091600;28;20039;-60
2023/02/24 09:26:41;;;;;;;3.55;2.28;;;;;;;-142.37;100.00;59669.53;5091591;28;20060;-60
2023/02/24 09:29:32;;;;;;;3.08;1.90;;;;;;;-142.37;100.00;59669.53;5089911;28;20028;-59
2023/02/24 09:32:03;;;;;;;2.88;1.90;;;;;;;-142.37;100.00;59669.53;5092089;28;20067;-58
2023/02/24 09:34:34;;;;;;;2.97;1.25;;;;;;;-142.37;100.00;59669.53;5095321;28;20633;-59
2023/02/24 09:37:03;;;;;;;4.47;1.60;;;;;;;-142.37;100.00;59669.53;5093498;28;20051;-60
2023/02/24 09:40:37;;;;;;;1.40;0.90;;;;;;;-142.37;100.00;59669.53;5093561;28;20553;-61
2023/02/24 09:45:00;;;;;;;2.72;1.50;;;;;;;-142.37;100.00;59669.53;5094746;28;20093;-60
2023/02/24 09:47:39;;;;;;;2.30;1.45;;;;;;;-142.37;100.00;59669.53;5093325;28;20455;-59
2023/02/24 09:50:23;;;;;;;1.67;1.58;;;;;;;-142.37;100.00;59669.53;5094414;28;20052;-60
2023/02/24 09:52:52;;;;;;;2.10;1.20;;;;;;;-142.37;100.00;59669.53;5093721;28;20056;-59
2023/02/24 09:55:59;;;;;;;2.58;1.90;;;;;;;-142.37;100.00;59669.53;5093676;28;20114;-60
2023/02/24 09:58:49;;;;;;;1.63;1.30;;;;;;;-142.37;100.00;59669.53;5086172;28;20040;-60
2023/02/24 10:02:00;;;;;;;2.05;1.25;;;;;;;-142.37;100.00;59669.53;5093048;28;20032;-60
2023/02/24 10:04:47;;;;;;;1.50;1.08;;;;;;;-142.37;100.00;59669.53;5093035;28;20029;-59
2023/02/24 10:07:16;;;;;;;2.50;2.00;;;;;;;-142.37;100.00;59669.53;5094172;28;20036;-59
2023/02/24 10:10:19;;;;;;;4.40;1.20;;;;;;;-142.37;100.00;59669.53;5094838;28;20504;-59
2023/02/24 10:13:13;;;;;;;1.83;1.15;;;;;;;-142.37;100.00;59669.53;5093075;28;20039;-60
2023/02/24 10:18:41;;;;;;;3.10;2.83;;;;;;;-142.37;100.00;59669.53;5093867;28;20485;-59
2023/02/24 10:21:47;;;;;;;1.70;1.25;;;;;;;-142.37;100.00;59669.53;5093313;28;20476;-60
2023/02/24 10:24:22;;;;;;;5.70;2.80;;;;;;;-142.37;100.00;59669.53;5095210;28;20063;-63
2023/02/24 10:26:57;;;;;;;4.65;2.17;;;;;;;-142.37;100.00;59669.53;5094015;28;20119;-61
2023/02/24 10:29:37;;;;;;;2.85;1.25;;;;;;;-142.37;100.00;59669.53;5093836;28;20020;-60
2023/02/24 10:32:17;;;;;;;1.90;1.20;;;;;;;-142.37;100.00;59669.53;5092365;28;20032;-62
2023/02/24 10:34:43;;;;;;;2.10;0.50;;;;;;;-142.37;100.00;59669.53;5093773;28;20034;-60
2023/02/24 10:37:21;;;;;;;1.75;0.93;;;;;;;-142.37;100.00;59669.53;5091412;28;20036;-60
2023/02/24 10:39:49;;;;;;;3.60;1.20;;;;;;;-142.37;100.00;59669.53;5093017;28;20024;-61
2023/02/24 10:42:31;;;;;;;2.03;1.08;;;;;;;-142.37;100.00;59669.53;5093650;28;20044;-61
2023/02/24 10:45:24;;;;;;;3.50;1.45;;;;;;;-142.37;100.00;59669.53;5092414;28;20101;-61
2023/02/24 10:47:56;;;;;;;2.60;1.52;;;;;;;-142.37;100.00;59669.53;5088465;28;20150;-60
2023/02/24 10:50:42;;;;;;;2.55;1.20;;;;;;;-142.37;100.00;59669.53;5093227;28;20027;-61
2023/02/24 10:53:33;;;;;;;2.30;0.52;;;;;;;-142.37;100.00;59669.53;5091388;28;20557;-60
2023/02/24 10:59:19;;;;;;;1.55;0.65;;;;;;;-142.37;100.00;59669.53;5093093;28;20039;-61
2023/02/24 11:01:57;;;;;;;3.58;1.50;;;;;;;-142.37;100.00;59669.53;5091819;28;20060;-61
2023/02/24 11:07:10;;;;;;;4.03;0.55;;;;;;;-142.37;100.00;59669.53;5093149;28;20453;-60
2023/02/24 11:09:51;;;;;;;3.28;0.70;;;;;;;-142.37;100.00;59669.53;5092864;28;20115;-60
2023/02/24 11:18:09;;;;;;;;;;;;;;;-142.37;100.00;59669.53;5093985;28;20054;-62
2023/02/24 11:21:08;;;;;;;1.05;0.65;;;;;;;-142.37;100.00;59669.53;5092259;28;19958;-61
2023/02/24 11:23:35;;;;;;;1.17;0.65;;;;;;;-142.37;100.00;59669.53;5092270;28;20028;-61
2023/02/24 11:26:17;;;;;;;6.50;0.68;;;;;;;-142.37;100.00;59669.53;5092552;28;20030;-61
2023/02/24 11:29:00;;;;;;;1.65;0.43;;;;;;;-142.37;100.00;59669.53;5090594;28;20032;-61
2023/02/24 11:32:07;;;;;;;1.25;0.47;;;;;;;-142.37;100.00;59669.53;5092283;28;20078;-61
2023/02/24 11:35:00;;;;;;;1.55;0.40;;;;;;;-142.37;100.00;59669.53;5090683;28;20118;-62
2023/02/24 11:38:11;;;;;;;3.25;0.57;;;;;;;-142.37;100.00;59669.53;5092475;28;20452;-60
2023/02/24 11:40:42;;;;;;;1.02;0.40;;;;;;;-142.37;100.00;59669.53;5013378;28;20029;-61
2023/02/24 11:43:10;;;;;;;1.90;0.57;;;;;;;-142.37;100.00;59669.53;5085669;28;20032;-60
2023/02/24 11:46:08;;;;;;;1.35;0.20;;;;;;;-142.37;100.00;59669.53;5090582;28;20028;-60
2023/02/24 11:48:50;;;;;;;2.60;0.80;;;;;;;-142.37;100.00;59669.53;5090836;28;20085;-60
2023/02/24 11:51:17;;;;;;;1.92;0.80;;;;;;;-142.37;100.00;59669.53;5092675;28;20202;-60
2023/02/24 11:54:05;;;;;;;0.93;0.38;;;;;;;-142.37;100.00;59669.53;5091912;28;20024;-61
2023/02/24 11:56:42;;;;;;;1.42;0.70;;;;;;;-142.37;100.00;59669.53;5091105;28;20028;-61
2023/02/24 11:59:21;;;;;;;2.60;0.50;;;;;;;-142.37;100.00;59669.53;5091864;28;20032;-62
2023/02/24 12:01:51;;;;;;;0.77;0.30;;;;;;;-142.37;100.00;59669.53;5090837;28;20036;-61
2023/02/24 12:04:41;;;;;;;2.88;0.65;;;;;;;-142.37;100.00;59669.53;5091999;28;20028;-61
2023/02/24 12:07:19;;;;;;;2.38;0.57;;;;;;;-142.37;100.00;59669.53;5091904;28;20028;-59